sensor_id;sensor_type;location;lat;lon;timestamp;pressure;altitude;pressure_sealevel;temperature;humidity
65997;BME280;52765;52.258;21.052;2023-07-28T00:02:20;99800.16;;;17.55;77.40
65997;BME280;52765;52.258;21.052;2023-07-28T00:04:46;99802.47;;;17.52;77.58
65997;BME280;52765;52.258;21.052;2023-07-28T00:07:11;99796.63;;;17.48;77.35
65997;BME280;52765;52.258;21.052;2023-07-28T00:09:36;99797.69;;;17.47;77.63
65997;BME280;52765;52.258;21.052;2023-07-28T00:12:02;99799.75;;;17.45;77.95
65997;BME280;52765;52.258;21.052;2023-07-28T00:14:27;99796.03;;;17.39;78.27
65997;BME280;52765;52.258;21.052;2023-07-28T00:16:54;99789.13;;;17.37;78.07
65997;BME280;52765;52.258;21.052;2023-07-28T00:19:20;99795.00;;;17.34;78.68
65997;BME280;52765;52.258;21.052;2023-07-28T00:21:48;99778.06;;;17.25;78.79
65997;BME280;52765;52.258;21.052;2023-07-28T00:24:14;99779.94;;;17.25;78.95
65997;BME280;52765;52.258;21.052;2023-07-28T00:26:39;99782.88;;;17.23;79.00
65997;BME280;52765;52.258;21.052;2023-07-28T00:29:05;99775.16;;;17.20;79.02
65997;BME280;52765;52.258;21.052;2023-07-28T00:31:32;99782.88;;;17.23;79.23
65997;BME280;52765;52.258;21.052;2023-07-28T00:33:58;99781.22;;;17.22;79.42
65997;BME280;52765;52.258;21.052;2023-07-28T00:36:23;99779.94;;;17.25;79.05
65997;BME280;52765;52.258;21.052;2023-07-28T00:38:49;99788.94;;;17.25;79.27
65997;BME280;52765;52.258;21.052;2023-07-28T00:41:14;99793.97;;;17.28;79.00
65997;BME280;52765;52.258;21.052;2023-07-28T00:43:40;99778.69;;;17.27;78.93
65997;BME280;52765;52.258;21.052;2023-07-28T00:46:05;99773.25;;;17.27;78.96
65997;BME280;52765;52.258;21.052;2023-07-28T00:48:31;99773.88;;;17.29;78.95
65997;BME280;52765;52.258;21.052;2023-07-28T00:50:57;99770.75;;;17.26;79.27
65997;BME280;52765;52.258;21.052;2023-07-28T00:53:23;99770.75;;;17.26;79.53
65997;BME280;52765;52.258;21.052;2023-07-28T00:55:50;99765.13;;;17.20;80.08
65997;BME280;52765;52.258;21.052;2023-07-28T00:58:16;99765.13;;;17.20;79.95
65997;BME280;52765;52.258;21.052;2023-07-28T01:00:41;99765.94;;;17.21;80.30
65997;BME280;52765;52.258;21.052;2023-07-28T01:03:07;99762.59;;;17.19;80.65
65997;BME280;52765;52.258;21.052;2023-07-28T01:08:39;99764.69;;;17.24;80.77
65997;BME280;52765;52.258;21.052;2023-07-28T01:11:05;99747.94;;;17.20;80.85
65997;BME280;52765;52.258;21.052;2023-07-28T01:13:31;99742.28;;;17.22;80.97
65997;BME280;52765;52.258;21.052;2023-07-28T01:15:56;99756.09;;;17.20;80.98
65997;BME280;52765;52.258;21.052;2023-07-28T01:18:23;99746.28;;;17.19;81.04
65997;BME280;52765;52.258;21.052;2023-07-28T01:20:51;99744.81;;;17.16;81.61
65997;BME280;52765;52.258;21.052;2023-07-28T01:26:08;99742.28;;;17.15;81.86
65997;BME280;52765;52.258;21.052;2023-07-28T01:28:35;99736.88;;;17.08;82.46
65997;BME280;52765;52.258;21.052;2023-07-28T01:31:05;99738.13;;;17.12;81.97
65997;BME280;52765;52.258;21.052;2023-07-28T01:33:31;99732.06;;;17.04;82.10
65997;BME280;52765;52.258;21.052;2023-07-28T01:35:56;99732.94;;;16.97;82.78
65997;BME280;52765;52.258;21.052;2023-07-28T01:38:23;99721.84;;;16.99;82.87
65997;BME280;52765;52.258;21.052;2023-07-28T01:40:49;99714.31;;;17.01;82.78
65997;BME280;52765;52.258;21.052;2023-07-28T01:43:14;99713.28;;;17.02;82.35
65997;BME280;52765;52.258;21.052;2023-07-28T01:45:39;99714.72;;;17.05;82.49
65997;BME280;52765;52.258;21.052;2023-07-28T01:48:05;99707.16;;;17.07;82.38
65997;BME280;52765;52.258;21.052;2023-07-28T01:50:31;99709.06;;;17.06;82.95
65997;BME280;52765;52.258;21.052;2023-07-28T01:52:57;99719.53;;;17.02;83.07
65997;BME280;52765;52.258;21.052;2023-07-28T01:55:22;99716.41;;;16.99;83.55
65997;BME280;52765;52.258;21.052;2023-07-28T01:57:54;99702.16;;;16.97;83.15
65997;BME280;52765;52.258;21.052;2023-07-28T02:00:20;99706.16;;;16.94;83.47
65997;BME280;52765;52.258;21.052;2023-07-28T02:02:46;99704.88;;;16.97;83.72
65997;BME280;52765;52.258;21.052;2023-07-28T02:05:12;99702.41;;;16.95;84.10
65997;BME280;52765;52.258;21.052;2023-07-28T02:07:37;99721.66;;;16.94;84.59
65997;BME280;52765;52.258;21.052;2023-07-28T02:10:03;99707.19;;;16.93;84.62
65997;BME280;52765;52.258;21.052;2023-07-28T02:12:31;99706.78;;;16.96;84.93
65997;BME280;52765;52.258;21.052;2023-07-28T02:14:58;99706.56;;;16.98;85.10
65997;BME280;52765;52.258;21.052;2023-07-28T02:17:23;99715.38;;;16.93;85.22
65997;BME280;52765;52.258;21.052;2023-07-28T02:19:48;99713.50;;;16.94;84.97
65997;BME280;52765;52.258;21.052;2023-07-28T02:22:14;99714.72;;;16.98;84.90
65997;BME280;52765;52.258;21.052;2023-07-28T02:24:39;99715.78;;;16.97;85.26
65997;BME280;52765;52.258;21.052;2023-07-28T02:27:05;99710.56;;;16.95;85.03
65997;BME280;52765;52.258;21.052;2023-07-28T02:29:30;99702.63;;;16.94;85.41
65997;BME280;52765;52.258;21.052;2023-07-28T02:31:56;99704.09;;;16.90;85.88
65997;BME280;52765;52.258;21.052;2023-07-28T02:34:21;99704.91;;;16.90;85.74
65997;BME280;52765;52.258;21.052;2023-07-28T02:36:47;99698.84;;;16.88;85.74
65997;BME280;52765;52.258;21.052;2023-07-28T02:39:12;99691.13;;;16.85;85.74
65997;BME280;52765;52.258;21.052;2023-07-28T02:41:38;99689.44;;;16.84;85.92
65997;BME280;52765;52.258;21.052;2023-07-28T02:44:04;99706.19;;;16.81;86.40
65997;BME280;52765;52.258;21.052;2023-07-28T02:46:30;99695.72;;;16.78;86.61
65997;BME280;52765;52.258;21.052;2023-07-28T02:48:55;99699.25;;;16.78;86.59
65997;BME280;52765;52.258;21.052;2023-07-28T02:51:21;99703.06;;;16.77;87.97
65997;BME280;52765;52.258;21.052;2023-07-28T02:53:46;99698.44;;;16.78;89.55
65997;BME280;52765;52.258;21.052;2023-07-28T02:56:11;99708.09;;;16.74;90.12
65997;BME280;52765;52.258;21.052;2023-07-28T02:58:37;99701.19;;;16.71;92.56
65997;BME280;52765;52.258;21.052;2023-07-28T03:01:02;99698.47;;;16.71;92.96
65997;BME280;52765;52.258;21.052;2023-07-28T03:03:28;99699.50;;;16.70;93.17
65997;BME280;52765;52.258;21.052;2023-07-28T03:05:53;99691.56;;;16.69;93.10
65997;BME280;52765;52.258;21.052;2023-07-28T03:08:22;99695.53;;;16.66;94.32
65997;BME280;52765;52.258;21.052;2023-07-28T03:10:48;99683.84;;;16.65;94.94
65997;BME280;52765;52.258;21.052;2023-07-28T03:13:13;99670.66;;;16.62;94.42
65997;BME280;52765;52.258;21.052;2023-07-28T03:15:39;99684.25;;;16.62;94.53
65997;BME280;52765;52.258;21.052;2023-07-28T03:18:04;99691.78;;;16.67;94.32
65997;BME280;52765;52.258;21.052;2023-07-28T03:20:30;99682.38;;;16.63;94.69
65997;BME280;52765;52.258;21.052;2023-07-28T03:22:55;99679.25;;;16.59;94.23
65997;BME280;52765;52.258;21.052;2023-07-28T03:25:20;99679.66;;;16.56;93.87
65997;BME280;52765;52.258;21.052;2023-07-28T03:27:46;99669.41;;;16.52;94.04
65997;BME280;52765;52.258;21.052;2023-07-28T03:30:11;99662.53;;;16.49;95.06
65997;BME280;52765;52.258;21.052;2023-07-28T03:32:37;99670.09;;;16.47;94.08
65997;BME280;52765;52.258;21.052;2023-07-28T03:35:03;99673.84;;;16.46;94.19
65997;BME280;52765;52.258;21.052;2023-07-28T03:37:31;99660.03;;;16.48;93.70
65997;BME280;52765;52.258;21.052;2023-07-28T03:39:56;99665.28;;;16.42;93.33
65997;BME280;52765;52.258;21.052;2023-07-28T03:42:21;99666.72;;;16.45;93.31
65997;BME280;52765;52.258;21.052;2023-07-28T03:44:47;99660.03;;;16.41;93.16
65997;BME280;52765;52.258;21.052;2023-07-28T03:47:12;99660.88;;;16.41;93.07
65997;BME280;52765;52.258;21.052;2023-07-28T03:49:38;99658.13;;;16.48;93.21
65997;BME280;52765;52.258;21.052;2023-07-28T03:52:04;99660.84;;;16.55;92.54
65997;BME280;52765;52.258;21.052;2023-07-28T03:54:29;99657.09;;;16.56;92.23
65997;BME280;52765;52.258;21.052;2023-07-28T03:56:54;99663.34;;;16.56;92.20
65997;BME280;52765;52.258;21.052;2023-07-28T03:59:20;99661.06;;;16.53;92.42
65997;BME280;52765;52.258;21.052;2023-07-28T04:01:45;99665.25;;;16.56;91.96
65997;BME280;52765;52.258;21.052;2023-07-28T04:04:11;99666.69;;;16.58;91.97
65997;BME280;52765;52.258;21.052;2023-07-28T04:06:41;99665.84;;;16.58;91.71
65997;BME280;52765;52.258;21.052;2023-07-28T04:09:11;99656.22;;;16.62;91.71
65997;BME280;52765;52.258;21.052;2023-07-28T04:11:37;99652.66;;;16.68;91.08
65997;BME280;52765;52.258;21.052;2023-07-28T04:14:02;99647.81;;;16.70;90.41
65997;BME280;52765;52.258;21.052;2023-07-28T04:16:28;99656.19;;;16.75;90.31
65997;BME280;52765;52.258;21.052;2023-07-28T04:18:53;99646.97;;;16.76;90.28
65997;BME280;52765;52.258;21.052;2023-07-28T04:21:18;99648.03;;;16.82;89.91
65997;BME280;52765;52.258;21.052;2023-07-28T04:23:44;99645.91;;;16.91;89.72
65997;BME280;52765;52.258;21.052;2023-07-28T04:26:09;99645.69;;;16.99;89.31
65997;BME280;52765;52.258;21.052;2023-07-28T04:28:35;99644.19;;;17.03;89.58
65997;BME280;52765;52.258;21.052;2023-07-28T04:31:00;99642.72;;;17.07;89.14
65997;BME280;52765;52.258;21.052;2023-07-28T04:33:26;99642.69;;;17.14;88.08
65997;BME280;52765;52.258;21.052;2023-07-28T04:35:51;99643.69;;;17.19;88.05
65997;BME280;52765;52.258;21.052;2023-07-28T04:38:16;99632.97;;;17.25;87.82
65997;BME280;52765;52.258;21.052;2023-07-28T04:40:43;99628.34;;;17.25;87.61
65997;BME280;52765;52.258;21.052;2023-07-28T04:43:09;99633.16;;;17.30;87.37
65997;BME280;52765;52.258;21.052;2023-07-28T04:45:34;99622.47;;;17.28;87.13
65997;BME280;52765;52.258;21.052;2023-07-28T04:47:59;99626.66;;;17.31;86.96
65997;BME280;52765;52.258;21.052;2023-07-28T04:50:25;99623.28;;;17.35;86.82
65997;BME280;52765;52.258;21.052;2023-07-28T04:52:50;99622.63;;;17.40;86.59
65997;BME280;52765;52.258;21.052;2023-07-28T04:55:16;99617.34;;;17.45;86.09
65997;BME280;52765;52.258;21.052;2023-07-28T04:57:41;99610.63;;;17.48;85.84
65997;BME280;52765;52.258;21.052;2023-07-28T05:00:07;99611.19;;;17.56;85.58
65997;BME280;52765;52.258;21.052;2023-07-28T05:02:33;99615.97;;;17.61;85.16
65997;BME280;52765;52.258;21.052;2023-07-28T05:04:59;99602.31;;;17.68;84.72
65997;BME280;52765;52.258;21.052;2023-07-28T05:07:24;99609.22;;;17.70;84.25
65997;BME280;52765;52.258;21.052;2023-07-28T05:09:50;99609.00;;;17.72;84.36
65997;BME280;52765;52.258;21.052;2023-07-28T05:12:15;99608.31;;;17.76;83.76
65997;BME280;52765;52.258;21.052;2023-07-28T05:14:42;99600.53;;;17.80;83.42
65997;BME280;52765;52.258;21.052;2023-07-28T05:17:07;99606.63;;;17.82;83.17
65997;BME280;52765;52.258;21.052;2023-07-28T05:19:33;99608.25;;;17.83;83.43
65997;BME280;52765;52.258;21.052;2023-07-28T05:21:58;99608.00;;;17.91;82.88
65997;BME280;52765;52.258;21.052;2023-07-28T05:24:23;99601.47;;;17.99;82.39
65997;BME280;52765;52.258;21.052;2023-07-28T05:26:49;99606.03;;;18.05;81.73
65997;BME280;52765;52.258;21.052;2023-07-28T05:29:14;99599.72;;;18.05;81.53
65997;BME280;52765;52.258;21.052;2023-07-28T05:31:40;99601.41;;;18.06;81.12
65997;BME280;52765;52.258;21.052;2023-07-28T05:34:05;99598.44;;;18.07;81.24
65997;BME280;52765;52.258;21.052;2023-07-28T05:36:30;99593.00;;;18.07;81.08
65997;BME280;52765;52.258;21.052;2023-07-28T05:38:57;99598.81;;;18.11;81.35
65997;BME280;52765;52.258;21.052;2023-07-28T05:41:23;99598.22;;;18.09;81.02
65997;BME280;52765;52.258;21.052;2023-07-28T05:43:49;99590.88;;;18.09;80.92
65997;BME280;52765;52.258;21.052;2023-07-28T05:46:14;99593.81;;;18.08;80.90
65997;BME280;52765;52.258;21.052;2023-07-28T05:48:40;99597.56;;;18.14;81.38
65997;BME280;52765;52.258;21.052;2023-07-28T05:51:05;99592.34;;;18.12;81.21
65997;BME280;52765;52.258;21.052;2023-07-28T05:53:31;99593.97;;;18.13;81.19
65997;BME280;52765;52.258;21.052;2023-07-28T05:55:56;99597.56;;;18.14;81.17
65997;BME280;52765;52.258;21.052;2023-07-28T05:58:22;99593.75;;;18.15;81.28
65997;BME280;52765;52.258;21.052;2023-07-28T06:00:47;99591.41;;;18.18;80.95
65997;BME280;52765;52.258;21.052;2023-07-28T06:03:13;99605.59;;;18.27;80.41
65997;BME280;52765;52.258;21.052;2023-07-28T06:05:42;99599.78;;;18.42;80.22
65997;BME280;52765;52.258;21.052;2023-07-28T06:08:08;99592.94;;;18.51;79.22
65997;BME280;52765;52.258;21.052;2023-07-28T06:10:34;99605.59;;;18.64;78.63
65997;BME280;52765;52.258;21.052;2023-07-28T06:12:59;99603.63;;;18.71;78.50
65997;BME280;52765;52.258;21.052;2023-07-28T06:15:25;99599.75;;;18.79;77.40
65997;BME280;52765;52.258;21.052;2023-07-28T06:17:50;99607.03;;;18.85;77.28
65997;BME280;52765;52.258;21.052;2023-07-28T06:20:16;99600.69;;;18.91;77.05
65997;BME280;52765;52.258;21.052;2023-07-28T06:22:41;99593.09;;;18.93;76.21
65997;BME280;52765;52.258;21.052;2023-07-28T06:25:07;99595.34;;;18.96;74.93
65997;BME280;52765;52.258;21.052;2023-07-28T06:27:33;99591.56;;;18.97;75.04
65997;BME280;52765;52.258;21.052;2023-07-28T06:29:58;99593.84;;;19.00;74.56
65997;BME280;52765;52.258;21.052;2023-07-28T06:32:24;99598.84;;;19.03;73.85
65997;BME280;52765;52.258;21.052;2023-07-28T06:34:50;99592.69;;;19.08;73.92
65997;BME280;52765;52.258;21.052;2023-07-28T06:37:16;99595.94;;;18.98;71.83
65997;BME280;52765;52.258;21.052;2023-07-28T06:39:41;99600.22;;;18.94;72.26
65997;BME280;52765;52.258;21.052;2023-07-28T06:42:07;99594.03;;;18.87;72.63
65997;BME280;52765;52.258;21.052;2023-07-28T06:44:33;99603.84;;;18.88;73.26
65997;BME280;52765;52.258;21.052;2023-07-28T06:46:58;99593.81;;;18.89;73.18
65997;BME280;52765;52.258;21.052;2023-07-28T06:49:23;99600.13;;;19.01;72.63
65997;BME280;52765;52.258;21.052;2023-07-28T06:51:49;99595.78;;;19.12;72.60
65997;BME280;52765;52.258;21.052;2023-07-28T06:54:14;99598.41;;;19.18;72.26
65997;BME280;52765;52.258;21.052;2023-07-28T06:56:40;99592.84;;;19.25;71.32
65997;BME280;52765;52.258;21.052;2023-07-28T06:59:07;99581.88;;;19.32;70.76
65997;BME280;52765;52.258;21.052;2023-07-28T07:01:33;99586.59;;;19.36;70.55
65997;BME280;52765;52.258;21.052;2023-07-28T07:03:59;99579.50;;;19.35;70.53
65997;BME280;52765;52.258;21.052;2023-07-28T07:06:24;99571.75;;;19.32;70.45
65997;BME280;52765;52.258;21.052;2023-07-28T07:08:50;99572.69;;;19.26;70.86
65997;BME280;52765;52.258;21.052;2023-07-28T07:11:16;99585.16;;;19.22;71.80
65997;BME280;52765;52.258;21.052;2023-07-28T07:13:41;99589.97;;;19.20;74.40
65997;BME280;52765;52.258;21.052;2023-07-28T07:16:14;99588.56;;;19.17;76.19
65997;BME280;52765;52.258;21.052;2023-07-28T07:18:40;99594.72;;;19.13;78.92
65997;BME280;52765;52.258;21.052;2023-07-28T07:21:06;99595.72;;;19.00;83.34
65997;BME280;52765;52.258;21.052;2023-07-28T07:23:31;99598.41;;;18.88;85.13
65997;BME280;52765;52.258;21.052;2023-07-28T07:25:56;99609.31;;;18.70;86.14
65997;BME280;52765;52.258;21.052;2023-07-28T07:28:22;99612.88;;;18.52;89.26
65997;BME280;52765;52.258;21.052;2023-07-28T07:30:47;99618.88;;;18.42;91.02
65997;BME280;52765;52.258;21.052;2023-07-28T07:33:13;99612.03;;;18.33;93.17
65997;BME280;52765;52.258;21.052;2023-07-28T07:35:39;99617.56;;;18.26;93.19
65997;BME280;52765;52.258;21.052;2023-07-28T07:38:05;99603.31;;;18.24;95.20
65997;BME280;52765;52.258;21.052;2023-07-28T07:40:35;99600.97;;;18.27;96.24
65997;BME280;52765;52.258;21.052;2023-07-28T07:43:01;99604.53;;;18.28;98.16
65997;BME280;52765;52.258;21.052;2023-07-28T07:45:28;99599.06;;;18.28;99.48
65997;BME280;52765;52.258;21.052;2023-07-28T07:47:54;99601.25;;;18.19;99.07
65997;BME280;52765;52.258;21.052;2023-07-28T07:50:20;99605.25;;;18.17;99.40
65997;BME280;52765;52.258;21.052;2023-07-28T07:52:47;99597.78;;;18.12;99.58
65997;BME280;52765;52.258;21.052;2023-07-28T07:55:13;99608.00;;;18.17;99.66
65997;BME280;52765;52.258;21.052;2023-07-28T07:57:41;99603.16;;;18.19;100.00
65997;BME280;52765;52.258;21.052;2023-07-28T08:00:07;99603.69;;;18.27;100.00
65997;BME280;52765;52.258;21.052;2023-07-28T08:02:33;99598.84;;;18.29;100.00
65997;BME280;52765;52.258;21.052;2023-07-28T08:04:59;99593.16;;;18.31;100.00
65997;BME280;52765;52.258;21.052;2023-07-28T08:07:24;99604.31;;;18.29;100.00
65997;BME280;52765;52.258;21.052;2023-07-28T08:09:50;99602.19;;;18.31;100.00
65997;BME280;52765;52.258;21.052;2023-07-28T08:12:15;99605.06;;;18.37;100.00
65997;BME280;52765;52.258;21.052;2023-07-28T08:14:41;99600.16;;;18.45;100.00
65997;BME280;52765;52.258;21.052;2023-07-28T08:17:08;99604.75;;;18.45;100.00
65997;BME280;52765;52.258;21.052;2023-07-28T08:19:34;99611.28;;;18.44;100.00
65997;BME280;52765;52.258;21.052;2023-07-28T08:22:00;99609.63;;;18.43;100.00
65997;BME280;52765;52.258;21.052;2023-07-28T08:24:26;99610.44;;;18.43;100.00
65997;BME280;52765;52.258;21.052;2023-07-28T08:26:51;99600.59;;;18.42;100.00
65997;BME280;52765;52.258;21.052;2023-07-28T08:29:17;99606.38;;;18.53;100.00
65997;BME280;52765;52.258;21.052;2023-07-28T08:31:42;99611.28;;;18.62;100.00
65997;BME280;52765;52.258;21.052;2023-07-28T08:34:08;99604.53;;;18.83;100.00
65997;BME280;52765;52.258;21.052;2023-07-28T08:36:34;99592.00;;;19.13;100.00
65997;BME280;52765;52.258;21.052;2023-07-28T08:38:59;99601.44;;;19.29;99.26
65997;BME280;52765;52.258;21.052;2023-07-28T08:41:25;99595.06;;;19.47;98.18
65997;BME280;52765;52.258;21.052;2023-07-28T08:43:50;99592.28;;;19.65;98.56
65997;BME280;52765;52.258;21.052;2023-07-28T08:46:17;99586.97;;;19.82;97.01
65997;BME280;52765;52.258;21.052;2023-07-28T08:48:44;99589.81;;;19.87;96.95
65997;BME280;52765;52.258;21.052;2023-07-28T08:51:10;99590.41;;;19.77;96.08
65997;BME280;52765;52.258;21.052;2023-07-28T08:53:37;99594.72;;;19.55;97.35
65997;BME280;52765;52.258;21.052;2023-07-28T08:56:03;99600.25;;;19.36;98.99
65997;BME280;52765;52.258;21.052;2023-07-28T08:58:29;99586.66;;;19.18;100.00
65997;BME280;52765;52.258;21.052;2023-07-28T09:00:55;99590.28;;;19.00;100.00
65997;BME280;52765;52.258;21.052;2023-07-28T09:03:21;99588.84;;;18.79;100.00
65997;BME280;52765;52.258;21.052;2023-07-28T09:05:48;99591.88;;;18.71;100.00
65997;BME280;52765;52.258;21.052;2023-07-28T09:08:17;99591.53;;;18.67;100.00
65997;BME280;52765;52.258;21.052;2023-07-28T09:10:47;99583.19;;;18.62;100.00
65997;BME280;52765;52.258;21.052;2023-07-28T09:13:18;99581.59;;;18.54;100.00
65997;BME280;52765;52.258;21.052;2023-07-28T09:15:45;99586.75;;;18.62;100.00
65997;BME280;52765;52.258;21.052;2023-07-28T09:18:12;99583.94;;;18.69;100.00
65997;BME280;52765;52.258;21.052;2023-07-28T09:20:39;99590.44;;;18.68;100.00
65997;BME280;52765;52.258;21.052;2023-07-28T09:23:07;99579.16;;;18.64;100.00
65997;BME280;52765;52.258;21.052;2023-07-28T09:25:34;99582.69;;;18.65;100.00
65997;BME280;52765;52.258;21.052;2023-07-28T09:28:00;99576.44;;;18.64;100.00
65997;BME280;52765;52.258;21.052;2023-07-28T09:30:26;99571.56;;;18.66;100.00
65997;BME280;52765;52.258;21.052;2023-07-28T09:32:54;99571.72;;;18.72;100.00
65997;BME280;52765;52.258;21.052;2023-07-28T09:35:21;99567.19;;;18.84;100.00
65997;BME280;52765;52.258;21.052;2023-07-28T09:37:49;99568.44;;;19.00;100.00
65997;BME280;52765;52.258;21.052;2023-07-28T09:40:21;99576.91;;;19.10;100.00
65997;BME280;52765;52.258;21.052;2023-07-28T09:42:48;99581.16;;;19.06;100.00
65997;BME280;52765;52.258;21.052;2023-07-28T09:45:20;99565.00;;;19.04;100.00
65997;BME280;52765;52.258;21.052;2023-07-28T09:47:47;99563.00;;;19.12;100.00
65997;BME280;52765;52.258;21.052;2023-07-28T09:50:18;99562.59;;;19.27;100.00
65997;BME280;52765;52.258;21.052;2023-07-28T09:52:50;99563.38;;;19.46;100.00
65997;BME280;52765;52.258;21.052;2023-07-28T09:55:18;99561.44;;;19.46;100.00
65997;BME280;52765;52.258;21.052;2023-07-28T09:57:48;99569.06;;;19.44;100.00
65997;BME280;52765;52.258;21.052;2023-07-28T10:00:17;99558.34;;;19.31;100.00
65997;BME280;52765;52.258;21.052;2023-07-28T10:02:44;99555.38;;;19.32;100.00
65997;BME280;52765;52.258;21.052;2023-07-28T10:05:10;99550.50;;;19.34;100.00
65997;BME280;52765;52.258;21.052;2023-07-28T10:07:38;99545.41;;;19.38;100.00
65997;BME280;52765;52.258;21.052;2023-07-28T10:10:08;99537.69;;;19.47;100.00
65997;BME280;52765;52.258;21.052;2023-07-28T10:12:51;99551.50;;;19.52;100.00
65997;BME280;52765;52.258;21.052;2023-07-28T10:15:19;99551.63;;;19.45;100.00
65997;BME280;52765;52.258;21.052;2023-07-28T10:17:51;99555.50;;;19.37;100.00
65997;BME280;52765;52.258;21.052;2023-07-28T10:20:35;99554.44;;;19.38;100.00
65997;BME280;52765;52.258;21.052;2023-07-28T10:23:15;99550.75;;;19.45;100.00
65997;BME280;52765;52.258;21.052;2023-07-28T10:25:44;99548.41;;;19.60;100.00
65997;BME280;52765;52.258;21.052;2023-07-28T10:30:54;99540.16;;;20.02;100.00
65997;BME280;52765;52.258;21.052;2023-07-28T10:33:35;99552.72;;;20.15;100.00
65997;BME280;52765;52.258;21.052;2023-07-28T10:39:15;99543.94;;;20.01;99.91
65997;BME280;52765;52.258;21.052;2023-07-28T10:42:03;99537.75;;;20.06;100.00
65997;BME280;52765;52.258;21.052;2023-07-28T10:44:29;99534.56;;;19.97;98.84
65997;BME280;52765;52.258;21.052;2023-07-28T10:46:55;99523.75;;;20.02;98.70
65997;BME280;52765;52.258;21.052;2023-07-28T10:49:20;99527.88;;;20.05;99.68
65997;BME280;52765;52.258;21.052;2023-07-28T10:51:46;99533.47;;;20.10;99.75
65997;BME280;52765;52.258;21.052;2023-07-28T10:54:12;99529.19;;;20.14;100.00
65997;BME280;52765;52.258;21.052;2023-07-28T10:56:41;99516.94;;;20.28;99.27
65997;BME280;52765;52.258;21.052;2023-07-28T10:59:06;99521.19;;;20.36;98.26
65997;BME280;52765;52.258;21.052;2023-07-28T11:04:14;99528.25;;;20.61;96.24
65997;BME280;52765;52.258;21.052;2023-07-28T11:06:47;99520.06;;;20.61;96.17
65997;BME280;52765;52.258;21.052;2023-07-28T11:09:14;99528.41;;;20.54;96.56
65997;BME280;52765;52.258;21.052;2023-07-28T11:11:41;99521.72;;;20.50;96.49
65997;BME280;52765;52.258;21.052;2023-07-28T11:14:08;99514.03;;;20.47;96.95
65997;BME280;52765;52.258;21.052;2023-07-28T11:16:35;99520.72;;;20.39;97.07
65997;BME280;52765;52.258;21.052;2023-07-28T11:19:03;99520.72;;;20.39;98.00
65997;BME280;52765;52.258;21.052;2023-07-28T11:21:29;99514.84;;;20.47;98.30
65997;BME280;52765;52.258;21.052;2023-07-28T11:23:54;99511.31;;;20.47;98.23
65997;BME280;52765;52.258;21.052;2023-07-28T11:26:21;99500.59;;;20.45;97.92
65997;BME280;52765;52.258;21.052;2023-07-28T11:28:47;99513.66;;;20.55;98.23
65997;BME280;52765;52.258;21.052;2023-07-28T11:31:13;99519.69;;;20.69;96.73
65997;BME280;52765;52.258;21.052;2023-07-28T11:33:39;99514.94;;;20.93;95.45
65997;BME280;52765;52.258;21.052;2023-07-28T11:36:05;99513.41;;;21.14;94.63
65997;BME280;52765;52.258;21.052;2023-07-28T11:38:32;99515.00;;;21.27;90.36
65997;BME280;52765;52.258;21.052;2023-07-28T11:40:58;99502.59;;;21.70;87.76
65997;BME280;52765;52.258;21.052;2023-07-28T11:43:25;99504.94;;;22.01;87.33
65997;BME280;52765;52.258;21.052;2023-07-28T11:45:50;99496.41;;;22.19;86.23
65997;BME280;52765;52.258;21.052;2023-07-28T11:48:16;99490.63;;;22.38;84.94
65997;BME280;52765;52.258;21.052;2023-07-28T11:50:43;99494.47;;;22.59;82.78
65997;BME280;52765;52.258;21.052;2023-07-28T11:53:10;99497.56;;;22.67;81.58
65997;BME280;52765;52.258;21.052;2023-07-28T11:55:37;99494.50;;;22.64;79.20
65997;BME280;52765;52.258;21.052;2023-07-28T11:58:04;99493.59;;;22.58;79.67
65997;BME280;52765;52.258;21.052;2023-07-28T12:00:32;99490.34;;;22.61;78.14
65997;BME280;52765;52.258;21.052;2023-07-28T12:03:08;99498.47;;;23.00;74.25
65997;BME280;52765;52.258;21.052;2023-07-28T12:05:42;99473.69;;;23.22;72.51
65997;BME280;52765;52.258;21.052;2023-07-28T12:08:39;99481.28;;;23.42;72.22
65997;BME280;52765;52.258;21.052;2023-07-28T12:11:05;99485.47;;;23.50;70.19
65997;BME280;52765;52.258;21.052;2023-07-28T12:13:31;99485.47;;;23.50;71.66
65997;BME280;52765;52.258;21.052;2023-07-28T12:15:57;99478.53;;;23.80;70.50
65997;BME280;52765;52.258;21.052;2023-07-28T12:18:30;99486.41;;;24.09;68.23
65997;BME280;52765;52.258;21.052;2023-07-28T12:20:56;99480.41;;;24.17;67.72
65997;BME280;52765;52.258;21.052;2023-07-28T12:23:22;99474.97;;;24.43;63.80
65997;BME280;52765;52.258;21.052;2023-07-28T12:25:49;99478.94;;;24.04;64.33
65997;BME280;52765;52.258;21.052;2023-07-28T12:28:15;99473.66;;;23.92;65.07
65997;BME280;52765;52.258;21.052;2023-07-28T12:30:41;99494.06;;;23.64;64.50
65997;BME280;52765;52.258;21.052;2023-07-28T12:33:07;99478.09;;;23.23;66.25
65997;BME280;52765;52.258;21.052;2023-07-28T12:35:33;99478.00;;;23.13;66.51
65997;BME280;52765;52.258;21.052;2023-07-28T12:38:03;99478.97;;;23.29;67.25
65997;BME280;52765;52.258;21.052;2023-07-28T12:40:34;99477.91;;;24.15;63.02
65997;BME280;52765;52.258;21.052;2023-07-28T12:43:01;99484.97;;;24.01;62.86
65997;BME280;52765;52.258;21.052;2023-07-28T12:45:27;99480.66;;;24.15;62.58
65997;BME280;52765;52.258;21.052;2023-07-28T12:47:53;99485.38;;;24.25;62.70
65997;BME280;52765;52.258;21.052;2023-07-28T12:50:19;99490.97;;;24.51;61.34
65997;BME280;52765;52.258;21.052;2023-07-28T12:52:47;99503.88;;;24.40;60.82
65997;BME280;52765;52.258;21.052;2023-07-28T12:55:13;99507.91;;;23.79;62.78
65997;BME280;52765;52.258;21.052;2023-07-28T12:57:38;99518.44;;;23.50;64.73
65997;BME280;52765;52.258;21.052;2023-07-28T13:00:04;99509.44;;;23.00;67.19